Pittsburg, NH

6:43 AM EDT on October 22, 2014 (GMT -0400)
First Connecticut Lake | Change Station
CLOSE
Current Station
Personal Weather Station
Location: Pittsburg, NH
Elevation: 1854 ft
Nearby Weather Stations

Elev 1854 ft 45.11 °N, 71.29 °W | Updated 13 seconds ago

Rain
Rain
40.3 °F
Feels Like 36 °F
N
7.0
Wind Variable Wind from ESE
Gusts 7.0 mph

Today
High -- | Low -- °F
--% Chance of Precip.
Yesterday
High -- | Low -- °F
Precip. -- in
7:10 AM 5:48 PM
Waning Crescent, 2% visible
Pressure 30.18 in
Visibility 6.0 miles
Clouds Mostly Cloudy 2300 ft
Mostly Cloudy 3400 ft
Overcast 5000 ft
Windchill 36 °F
Dew Point 40 °F
Humidity 97%
Rainfall 0.11 in
Snow Depth Not available.
UV 0.0 out of 12
Pollen .10 out of 12
Air Quality Not available.
Flu Activity Local Activity
METAR KBML 220952Z AUTO 36006KT 6SM RA BR BKN023 BKN034 OVC050 07/06 A3015 RMK AO2 SLP219 P0007 T00670061

More Conditions Fewer Conditions

Pressure 30.18 in
Visibility 6.0 miles
Clouds Mostly Cloudy 2300 ft
Mostly Cloudy 3400 ft
Overcast 5000 ft
Windchill 36 °F
Dew Point 40 °F
Humidity 97%
Rainfall 0.11 in
Snow Depth Not available.
UV 0.0 out of 12
Pollen .10 out of 12
Air Quality Not available.
Flu Activity Local Activity
METAR KBML 220952Z AUTO 36006KT 6SM RA BR BKN023 BKN034 OVC050 07/06 A3015 RMK AO2 SLP219 P0007 T00670061

More Conditions Fewer Conditions

10-Day Weather Forecast

Almanac

Astronomy

Oct. 22, 2014 Rise Set
Actual Time 7:10 AM EDT 5:48 PM EDT
Civil Twilight 6:40 AM EDT 6:18 PM EDT
Nautical Twilight 6:06 AM EDT 6:52 PM EDT
Astronomical Twilight 5:31 AM EDT 7:26 PM EDT
Moon 5:45 AM EDT 5:15 PM EDT
Length of Visible Light 11h 38m
Length of Day
10h 38m
Tomorrow will be 2m 57s shorter.
Waning Crescent, 2% of the Moon is Illuminated
Today
Waning Crescent
Oct 23
New
Oct 30
First Quarter
Nov 6
Full
Nov 14
Last Quarter

Today's Extremes

State Highs State Lows

Community

WunderPhotos

Upload Photos

1,763,902 photos uploaded!

Nearby

Air Quality

  Air Quality AQ Index Pollutant
Wednesday Good
PM2.5
Wednesday Good
OZONE

Snow Depth

Station Depth Elevation
No new snow has been reported.

Earthquake Activity

City Distance Mag. Time & Date
No recent earthquake activity has been reported nearby.
Minimum magnitude displayed is 2.5.

Coastal Water Temperatures

Place Temperature
No Stations Reporting

Nearby Weather Stations